Latest Weather Observations for Hartz Mountains

IDT60801

Issued at 12:35 am EDT Saturday 1 November 2014 (issued every 30 minutes, with the page automatically refreshed every 10 minutes)

About weather observations | Map of weather stations | Latest weather observations for TAS | Other Formats
Station Details ID: 094191 Name: HARTZ MOUNTAIN (KEOGHS PIMPLE) Lat: -43.20 Lon: 146.77 Height: 831.0 m
Data from the previous 72 hours. | See also: Recent months at Hartz Mountains
Date/Time
EDT
Temp
°C
App
Temp
°C
Dew
Point
Rel
Hum
%
Delta-T
°C
Wind Press
QNH
hPa
Press
MSL
hPa
Rain
since 9 am
mm
Dir
 
Spd
km/h
Gust
km/h
Spd
kts
Gust
kts
01/12:30am 11.1 0.2 8.7 85 1.2 WNW 56 78 30 42 - - 1.8
01/12:00am 11.4 0.9 8.8 84 1.4 WNW 54 78 29 42 - - 1.6
 
Date/Time
EDT
Temp
°C
App
Temp
°C
Dew
Point
Rel
Hum
%
Delta-T
°C
Wind Press
QNH
hPa
Press
MSL
hPa
Rain
since 9 am
mm
Dir
 
Spd
km/h
Gust
km/h
Spd
kts
Gust
kts
31/11:30pm 11.2 0.7 8.9 86 1.2 WNW 54 78 29 42 - - 1.6
31/11:00pm 10.9 1.9 8.7 86 1.1 WNW 46 67 25 36 - - 1.6
31/10:30pm 11.2 3.3 7.7 79 1.8 NW 39 57 21 31 - - 1.6
31/10:06pm 11.5 3.4 7.2 75 2.2 NW 39 57 21 31 - - 1.6
31/10:00pm 11.5 3.0 7.0 74 2.3 NW 41 57 22 31 - - 1.6
31/09:30pm 11.3 1.6 7.4 77 2.0 WNW 48 74 26 40 - - 1.6
31/09:00pm 12.1 1.5 7.0 71 2.6 WNW 52 87 28 47 - - 1.6
31/08:46pm 12.2 1.6 6.7 69 2.8 WNW 52 82 28 44 - - 1.6
31/08:43pm 12.2 1.5 6.5 68 2.8 WNW 52 65 28 35 - - 1.6
31/08:32pm 12.5 -1.6 6.5 67 3.0 WNW 70 95 38 51 - - 1.6
31/08:30pm 12.4 2.9 6.9 69 2.8 WNW 46 78 25 42 - - 1.6
31/08:11pm 12.6 1.0 5.8 63 3.3 WNW 56 100 30 54 - - 1.6
31/08:00pm 12.5 2.8 5.7 63 3.3 WNW 46 65 25 35 - - 1.6
31/07:30pm 12.3 1.1 5.9 65 3.1 WNW 54 93 29 50 - - 1.6
31/07:23pm 12.4 1.9 5.8 64 3.2 WNW 50 93 27 50 - - 1.6
31/07:00pm 12.4 2.1 6.7 68 2.9 WNW 50 74 27 40 - - 1.6
31/06:30pm 12.0 2.9 6.9 71 2.6 WNW 44 72 24 39 - - 1.6
31/06:00pm 12.3 4.8 7.8 74 2.3 WNW 37 59 20 32 - - 1.6
31/05:30pm 12.7 5.2 9.3 80 1.8 NW 39 59 21 32 - - 1.6
31/05:00pm 12.7 7.5 10.4 86 1.2 NW 28 46 15 25 - - 1.6
31/04:30pm 12.3 5.5 10.5 89 1.0 NW 37 59 20 32 - - 1.6
31/04:00pm 10.5 3.5 9.9 96 0.3 WNW 37 57 20 31 - - 1.6
31/03:30pm 9.5 2.3 9.2 98 0.2 WNW 37 57 20 31 - - 1.4
31/03:00pm 9.2 1.6 8.9 98 0.2 WNW 39 63 21 34 - - 1.2
31/02:30pm 8.9 1.5 8.5 97 0.2 WNW 37 56 20 30 - - 1.0
31/02:11pm 8.7 2.9 8.1 96 0.3 WNW 28 46 15 25 - - 0.4
31/02:00pm 8.5 3.8 7.9 96 0.3 WNW 22 35 12 19 - - 0.2
31/01:47pm 8.4 2.6 7.8 96 0.3 WNW 28 46 15 25 - - 0.2
31/01:30pm 7.8 3.0 7.4 97 0.2 WNW 22 35 12 19 - - 0.2
31/01:00pm 7.5 2.2 6.8 95 0.3 NW 24 37 13 20 - - 0.2
31/12:36pm 7.4 1.3 6.7 95 0.3 NW 28 46 15 25 - - 0.0
31/12:30pm 7.4 2.1 6.7 95 0.3 NW 24 41 13 22 - - 0.0
31/12:00pm 7.3 3.7 6.7 96 0.3 WNW 15 22 8 12 - - 0.0
31/11:30am 6.8 3.8 6.2 96 0.3 W 11 19 6 10 - - 0.0
31/11:00am 6.5 3.1 5.8 95 0.3 W 13 17 7 9 - - 0.0
31/10:30am 6.5 0.9 5.5 93 0.5 NW 24 37 13 20 - - 0.0
31/10:00am 6.9 0.6 5.7 92 0.6 WNW 28 35 15 19 - - 0.0
31/09:30am 6.9 1.2 5.1 88 0.8 WNW 24 41 13 22 - - 0.0
31/09:00am 7.7 1.6 6.5 92 0.6 WNW 28 41 15 22 - - 0.8
31/08:30am 6.8 0.5 5.9 94 0.4 NW 28 41 15 22 - - 0.8
31/08:00am 6.8 0.6 6.1 95 0.3 WNW 28 39 15 21 - - 0.8
31/07:42am 6.1 -0.6 5.4 95 0.3 WNW 30 48 16 26 - - 0.8
31/07:30am 5.8 -1.6 5.2 96 0.3 WNW 33 44 18 24 - - 0.8
31/07:10am 5.8 -1.3 5.4 97 0.2 WNW 32 52 17 28 - - 0.8
31/07:00am 5.9 -0.4 5.6 98 0.1 WNW 28 39 15 21 - - 0.8
31/06:30am 5.9 -0.1 5.5 97 0.2 WNW 26 39 14 21 - - 0.8
31/06:00am 5.9 -0.4 5.6 98 0.1 WNW 28 39 15 21 - - 0.8
31/05:30am 6.0 -1.6 5.7 98 0.1 W 35 54 19 29 - - 0.8
31/05:14am 6.0 -1.0 5.9 99 0.0 W 32 54 17 29 - - 0.8
31/05:00am 6.1 -2.2 6.0 99 0.0 W 39 50 21 27 - - 0.8
31/04:30am 6.1 -0.5 6.0 99 0.0 WNW 30 54 16 29 - - 0.8
31/04:28am 6.0 -0.3 5.9 99 0.0 W 28 52 15 28 - - 0.8
31/04:00am 6.0 -2.0 5.7 98 0.1 W 37 48 20 26 - - 0.6
31/03:30am 5.9 -2.1 5.6 98 0.1 W 37 57 20 31 - - 0.6
31/03:00am 6.0 -2.8 5.7 98 0.1 W 41 63 22 34 - - 0.6
31/02:35am 6.0 -1.1 5.7 98 0.1 W 32 50 17 27 - - 0.6
31/02:30am 6.0 -0.7 5.7 98 0.1 W 30 43 16 23 - - 0.6
31/02:19am 6.0 -1.2 5.7 98 0.1 W 33 52 18 28 - - 0.4
31/02:00am 5.8 0.6 5.5 98 0.1 W 22 33 12 18 - - 0.4
31/01:30am 5.8 0.2 5.5 98 0.1 WNW 24 39 13 21 - - 0.2
31/01:07am 5.8 -0.9 5.5 98 0.1 W 30 48 16 26 - - 0.2
31/01:00am 5.7 -0.7 5.4 98 0.1 W 28 39 15 21 - - 0.2
31/12:30am 5.7 -1.4 5.4 98 0.1 W 32 52 17 28 - - 0.2
31/12:01am 5.6 -1.7 5.3 98 0.1 W 33 52 18 28 - - 0.2
31/12:00am 5.6 -2.1 5.3 98 0.1 W 35 52 19 28 - - 0.2
 
Date/Time
EDT
Temp
°C
App
Temp
°C
Dew
Point
Rel
Hum
%
Delta-T
°C
Wind Press
QNH
hPa
Press
MSL
hPa
Rain
since 9 am
mm
Dir
 
Spd
km/h
Gust
km/h
Spd
kts
Gust
kts
30/11:37pm 5.3 -1.1 5.0 98 0.1 WNW 28 46 15 25 - - 0.2
30/11:30pm 5.2 -0.5 4.9 98 0.1 WNW 24 33 13 18 - - 0.2
30/11:00pm 5.0 -0.4 4.7 98 0.1 WNW 22 33 12 18 - - 0.2
30/10:30pm 5.0 -1.1 4.6 97 0.2 WNW 26 39 14 21 - - 0.2
30/10:08pm 5.0 -2.3 4.6 97 0.2 W 32 50 17 27 - - 0.2
30/10:00pm 4.9 -2.4 4.5 97 0.2 WNW 32 44 17 24 - - 0.2
30/09:30pm 4.9 -0.2 4.2 95 0.3 W 20 35 11 19 - - 0.2
30/09:00pm 5.0 -1.2 4.1 94 0.4 W 26 43 14 23 - - 0.2
30/08:30pm 4.9 -2.5 4.0 94 0.4 WNW 32 50 17 27 - - 0.2
30/08:00pm 4.9 -2.7 4.0 94 0.4 WNW 33 56 18 30 - - 0.2
30/07:31pm 5.0 -1.6 4.1 94 0.4 W 28 46 15 25 - - 0.2
30/07:30pm 5.0 -1.2 4.1 94 0.4 W 26 46 14 25 - - 0.2
30/07:15pm 5.0 -2.0 4.0 93 0.4 W 30 48 16 26 - - 0.2
30/07:00pm 5.2 -1.4 4.0 92 0.5 W 28 44 15 24 - - 0.2
30/06:32pm 5.1 -2.4 3.6 90 0.7 W 32 50 17 27 - - 0.2
30/06:30pm 5.1 -2.6 3.6 90 0.7 W 33 50 18 27 - - 0.2
30/06:23pm 5.1 -1.6 3.8 91 0.6 W 28 46 15 25 - - 0.2
30/06:00pm 5.2 -1.1 3.9 91 0.6 W 26 50 14 27 - - 0.2
30/05:30pm 5.4 -3.3 3.9 90 0.7 W 39 63 21 34 - - 0.2
30/05:00pm 5.4 -3.4 3.7 89 0.8 WNW 39 59 21 32 - - 0.2
30/04:42pm 5.5 -2.2 3.3 86 1.0 WNW 33 65 18 35 - - 0.2
30/04:32pm 5.5 -1.1 4.0 90 0.7 WNW 28 46 15 25 - - 0.2
30/04:30pm 5.4 -2.1 3.7 89 0.8 WNW 32 46 17 25 - - 0.2
30/04:00pm 5.4 -1.3 3.9 90 0.7 W 28 54 15 29 - - 0.2
30/03:30pm 5.5 -2.5 3.7 88 0.8 W 35 59 19 32 - - 0.2
30/03:20pm 5.8 -3.4 3.3 84 1.1 WSW 41 59 22 32 - - 0.2
30/03:19pm 5.8 -3.4 3.5 85 1.0 WSW 41 57 22 31 - - 0.2
30/03:00pm 5.7 -3.1 3.7 87 0.9 W 39 72 21 39 - - 0.2
30/02:30pm 5.7 -1.2 4.8 94 0.4 W 30 63 16 34 - - 0.2
30/02:03pm 5.8 -1.2 4.1 89 0.8 W 30 65 16 35 - - 0.2
30/02:00pm 5.9 0.2 4.7 92 0.5 WSW 24 46 13 25 - - 0.2
30/01:45pm 5.4 -2.5 4.5 94 0.4 WNW 35 54 19 29 - - 0.2
30/01:43pm 5.2 -3.1 4.3 94 0.4 WNW 37 50 20 27 - - 0.2
30/01:37pm 5.0 -2.5 4.3 95 0.3 WSW 33 76 18 41 - - 0.2
30/01:32pm 5.4 -1.1 4.7 95 0.3 WSW 28 50 15 27 - - 0.0
30/01:30pm 5.5 -0.2 4.8 95 0.3 WSW 24 46 13 25 - - 0.0
30/01:27pm 5.7 0.8 5.0 95 0.3 WSW 20 28 11 15 - - 0.0
30/01:01pm 6.0 -3.3 5.0 93 0.5 WNW 43 61 23 33 - - 0.0
30/01:00pm 6.0 -3.5 4.8 92 0.5 WNW 44 61 24 33 - - 0.0
30/12:30pm 5.7 -1.1 5.0 95 0.3 W 30 56 16 30 - - 0.0
30/12:27pm 5.7 -0.7 5.1 96 0.3 W 28 56 15 30 - - 0.0
30/12:00pm 5.4 -0.8 4.5 94 0.4 W 26 56 14 30 - - 0.0
30/11:52am 5.3 -1.3 4.3 93 0.4 W 28 56 15 30 - - 0.0
30/11:30am 5.2 -0.1 4.8 97 0.2 W 22 37 12 20 - - 0.0
30/11:00am 4.9 -1.6 4.6 98 0.1 W 28 52 15 28 - - 0.0
30/10:30am 4.6 -2.0 4.3 98 0.1 WSW 28 48 15 26 - - 0.0
30/10:00am 5.1 -1.4 4.7 97 0.2 WSW 28 46 15 25 - - 0.0
30/09:30am 5.1 -1.4 4.8 98 0.1 W 28 46 15 25 - - 0.0
30/09:00am 5.4 -1.0 5.3 99 0.0 WSW 28 43 15 23 - - 2.0
30/08:42am 4.9 -2.3 4.8 99 0.0 WSW 32 52 17 28 - - 2.0
30/08:30am 5.2 -1.2 5.1 99 0.0 WSW 28 37 15 20 - - 2.0
30/08:00am 5.5 0.7 5.4 99 0.0 W 20 32 11 17 - - 2.0
30/07:30am 5.0 0.1 4.9 99 0.0 WNW 20 32 11 17 - - 2.0
30/07:00am 4.8 -0.6 4.7 99 0.0 WNW 22 41 12 22 - - 2.0
30/06:30am 4.9 -0.1 4.8 99 0.0 W 20 48 11 26 - - 2.0
30/06:00am 5.0 -1.5 4.9 99 0.0 W 28 48 15 26 - - 2.0
30/05:53am 5.0 -1.8 4.9 99 0.0 WNW 30 48 16 26 - - 1.8
30/05:30am 5.0 -1.1 4.9 99 0.0 WNW 26 43 14 23 - - 1.8
30/05:00am 5.2 -1.2 5.1 99 0.0 W 28 44 15 24 - - 1.8
30/04:30am 5.2 0.3 5.1 99 0.0 W 20 28 11 15 - - 1.6
30/04:00am 5.3 -0.7 5.2 99 0.0 W 26 35 14 19 - - 1.4
30/03:34am 5.3 -1.9 5.2 99 0.0 WNW 32 50 17 27 - - 1.0
30/03:30am 5.3 -2.4 5.2 99 0.0 WNW 35 50 19 27 - - 1.0
30/03:00am 5.2 -2.0 5.1 99 0.0 WNW 32 50 17 27 - - 1.0
30/02:38am 5.0 -1.5 4.9 99 0.0 WNW 28 46 15 25 - - 0.8
30/02:30am 5.0 -1.5 4.9 99 0.0 W 28 43 15 23 - - 0.8
30/02:00am 4.9 -2.9 4.8 99 0.0 WNW 35 59 19 32 - - 0.8
30/01:30am 4.8 -3.0 4.7 99 0.0 WNW 35 54 19 29 - - 0.8
30/01:00am 4.8 -3.1 4.5 98 0.1 WNW 35 65 19 35 - - 0.8
30/12:30am 4.9 -6.1 4.8 99 0.0 W 52 76 28 41 - - 0.8
30/12:00am 5.2 -4.3 5.1 99 0.0 WNW 44 65 24 35 - - 0.8
 
Date/Time
EDT
Temp
°C
App
Temp
°C
Dew
Point
Rel
Hum
%
Delta-T
°C
Wind Press
QNH
hPa
Press
MSL
hPa
Rain
since 9 am
mm
Dir
 
Spd
km/h
Gust
km/h
Spd
kts
Gust
kts
29/11:30pm 5.4 -4.4 5.1 98 0.1 W 46 65 25 35 - - 0.8
29/11:03pm 5.2 -2.6 4.9 98 0.1 W 35 54 19 29 - - 0.8
29/11:00pm 5.2 -2.2 4.9 98 0.1 W 33 43 18 23 - - 0.8
29/10:30pm 5.2 -5.1 4.9 98 0.1 W 48 70 26 38 - - 0.8
29/10:00pm 5.2 -6.5 5.1 99 0.0 W 56 83 30 45 - - 0.8
29/09:49pm 5.3 -6.0 5.2 99 0.0 W 54 83 29 45 - - 0.8
29/09:30pm 5.4 -3.5 5.3 99 0.0 W 41 65 22 35 - - 0.8
29/09:00pm 5.5 -3.9 5.2 98 0.1 W 44 72 24 39 - - 0.8
29/08:30pm 5.7 -4.1 5.4 98 0.1 W 46 78 25 42 - - 0.8
29/08:01pm 5.9 -5.0 5.6 98 0.1 W 52 72 28 39 - - 0.8
29/08:00pm 5.8 -5.9 5.5 98 0.1 W 56 72 30 39 - - 0.8
29/07:59pm 5.8 -6.0 5.5 98 0.1 W 57 72 31 39 - - 0.8
29/07:52pm 5.8 -0.5 5.5 98 0.1 WNW 28 56 15 30 - - 0.8
29/07:30pm 5.8 -0.9 5.4 97 0.2 WNW 30 43 16 23 - - 0.6
29/07:02pm 6.2 -3.5 5.9 98 0.1 W 46 65 25 35 - - 0.6
29/07:00pm 6.2 -4.3 5.8 97 0.2 W 50 65 27 35 - - 0.6
29/06:54pm 6.2 -0.5 5.8 97 0.2 WNW 30 52 16 28 - - 0.4
29/06:30pm 6.2 -1.1 5.6 96 0.3 WNW 33 46 18 25 - - 0.0
29/06:12pm 6.2 -1.1 5.5 95 0.3 WNW 33 52 18 28 - - 0.0
29/06:00pm 6.2 -0.6 5.3 94 0.4 WNW 30 35 16 19 - - 0.0
29/05:30pm 6.1 -4.5 5.1 93 0.5 W 50 72 27 39 - - 0.0
29/05:07pm 6.5 -4.7 5.9 96 0.3 WNW 54 72 29 39 - - 0.0
29/05:05pm 6.5 -5.1 5.9 96 0.3 WNW 56 70 30 38 - - 0.0
29/05:01pm 6.7 -0.3 6.1 96 0.3 WNW 32 57 17 31 - - 0.0
29/05:00pm 6.7 -0.3 6.1 96 0.3 WNW 32 48 17 26 - - 0.0
29/04:30pm 6.8 -2.3 5.7 93 0.5 WNW 43 69 23 37 - - 0.0
29/04:06pm 6.7 -1.7 5.8 94 0.4 WNW 39 57 21 31 - - 0.0
29/04:00pm 6.8 -2.3 5.7 93 0.5 WNW 43 57 23 31 - - 0.0
29/03:33pm 7.0 -2.4 5.5 90 0.7 WNW 44 63 24 34 - - 0.0
29/03:30pm 7.0 -2.8 5.3 89 0.8 WNW 46 63 25 34 - - 0.0
29/03:00pm 6.8 -2.5 5.0 88 0.8 WNW 43 67 23 36 - - 0.0
29/02:30pm 6.5 -2.8 4.8 89 0.8 WNW 43 67 23 36 - - 0.0
29/02:01pm 6.5 -4.1 5.3 92 0.6 WNW 50 69 27 37 - - 0.0
29/02:00pm 6.5 -4.4 5.3 92 0.6 WNW 52 69 28 37 - - 0.0
29/01:30pm 6.3 -3.8 5.7 96 0.3 W 48 70 26 38 - - 0.0
29/01:00pm 6.3 -4.6 5.3 93 0.5 W 52 78 28 42 - - 0.0
29/12:30pm 6.0 -4.2 5.1 94 0.4 W 48 69 26 37 - - 0.0
29/12:00pm 5.7 -5.7 4.8 94 0.4 W 54 80 29 43 - - 0.0
29/11:30am 5.4 -4.1 4.8 96 0.3 WNW 44 65 24 35 - - 0.0
29/11:07am 5.1 -4.4 4.7 97 0.2 W 44 63 24 34 - - 0.0
29/11:00am 5.0 -4.9 4.6 97 0.2 W 46 63 25 34 - - 0.0
29/10:53am 5.0 -3.2 4.7 98 0.1 W 37 48 20 26 - - 0.0
29/10:30am 4.7 -7.1 4.6 99 0.0 W 56 80 30 43 - - 0.0
29/10:00am 4.2 -7.0 4.1 99 0.0 W 52 78 28 42 - - 0.0
29/09:30am 4.1 -6.8 3.8 98 0.1 W 50 76 27 41 - - 0.0
29/09:00am 3.8 -7.8 3.7 99 0.0 W 54 80 29 43 - - 3.2
29/08:30am 3.7 -10.0 3.6 99 0.0 W 65 93 35 50 - - 3.2
29/08:16am 3.0 -10.8 3.0 100 0.0 W 65 83 35 45 - - 3.2
29/08:13am 3.0 -11.8 3.0 100 0.0 W 70 82 38 44 - - 3.2
29/08:00am 2.6 -8.5 2.6 100 0.0 W 50 70 27 38 - - 3.2
29/07:30am 2.4 -7.9 2.4 100 0.0 W 46 67 25 36 - - 3.2
29/07:05am 2.0 -5.8 2.0 100 0.0 W 32 54 17 29 - - 3.0
29/07:00am 1.9 -6.4 1.9 100 0.0 W 35 50 19 27 - - 3.0
29/06:30am 1.6 -8.3 1.6 100 0.0 W 43 61 23 33 - - 3.0
29/06:00am 1.5 -6.9 1.5 100 0.0 W 35 54 19 29 - - 3.0
29/05:33am 1.2 -6.9 1.1 99 0.0 W 33 54 18 29 - - 2.8
29/05:30am 1.2 -6.7 1.1 99 0.0 W 32 48 17 26 - - 2.8
29/05:00am 1.2 -9.0 0.8 97 0.2 W 44 65 24 35 - - 2.8
29/04:30am 0.9 -9.2 0.6 98 0.1 W 43 72 23 39 - - 2.6
29/04:00am 0.7 -9.6 0.4 98 0.1 W 44 67 24 36 - - 2.2
29/03:37am 0.8 -9.9 0.4 97 0.2 WSW 46 65 25 35 - - 2.2
29/03:30am 0.7 -9.4 0.1 96 0.2 WSW 43 59 23 32 - - 2.2
29/03:10am 0.4 -8.2 0.0 97 0.2 WSW 35 57 19 31 - - 2.2
29/03:00am 0.4 -7.7 0.0 97 0.2 W 32 48 17 26 - - 2.2
29/02:30am 0.4 -7.9 -0.2 96 0.2 W 33 61 18 33 - - 2.2
29/02:00am 0.5 -7.8 -0.4 94 0.3 WSW 33 57 18 31 - - 2.2
29/01:48am 0.3 -7.1 -0.4 95 0.3 W 28 50 15 27 - - 2.2
29/01:30am 0.1 -6.9 -0.7 94 0.3 WSW 26 46 14 25 - - 2.2
29/01:01am 0.0 -8.2 -0.8 94 0.3 WSW 32 50 17 27 - - 2.2
29/01:00am 0.1 -8.3 -0.9 93 0.4 WSW 33 50 18 27 - - 2.2
29/12:40am 0.2 -7.5 -0.4 96 0.2 W 30 52 16 28 - - 2.2

Other Formats:

Comma delimited format used in spreadsheet applications
http://www.bom.gov.au/fwo/IDT60801/IDT60801.94977.axf

JavaScript Object Notation format (JSON) in row-major order
http://www.bom.gov.au/fwo/IDT60801/IDT60801.94977.json